createdAt,value
2017-06-17T00:01:33.286Z,3.72
2017-06-17T00:03:59.333Z,3.67
2017-06-17T00:06:25.383Z,3.78
2017-06-17T00:08:51.456Z,3.47
2017-06-17T00:11:17.511Z,4.03
2017-06-17T00:13:43.562Z,3.10
2017-06-17T00:16:09.609Z,3.05
2017-06-17T00:18:35.663Z,3.60
2017-06-17T00:21:01.706Z,3.87
2017-06-17T00:23:27.758Z,2.80
2017-06-17T00:25:53.818Z,4.18
2017-06-17T00:28:19.867Z,3.75
2017-06-17T00:30:45.913Z,3.40
2017-06-17T00:33:11.962Z,3.87
2017-06-17T00:35:38.024Z,4.47
2017-06-17T00:38:04.069Z,3.20
2017-06-17T00:40:30.117Z,3.45
2017-06-17T00:42:56.159Z,3.95
2017-06-17T00:45:22.200Z,3.45
2017-06-17T00:47:48.242Z,3.28
2017-06-17T00:50:29.282Z,3.67
2017-06-17T00:52:55.338Z,3.28
2017-06-17T00:55:21.384Z,4.43
2017-06-17T00:57:48.169Z,4.03
2017-06-17T01:00:14.217Z,3.70
2017-06-17T01:02:40.258Z,3.33
2017-06-17T01:05:06.301Z,3.70
2017-06-17T01:07:32.345Z,3.33
2017-06-17T01:09:58.398Z,4.40
2017-06-17T01:12:24.446Z,3.85
2017-06-17T01:14:50.506Z,3.53
2017-06-17T01:25:49.523Z,3.87
2017-06-17T01:28:15.574Z,4.60
2017-06-17T01:30:41.626Z,2.65
2017-06-17T01:33:07.686Z,4.05
2017-06-17T01:35:33.723Z,4.05
2017-06-17T01:37:59.762Z,3.87
2017-06-17T01:40:25.822Z,3.10
2017-06-17T01:42:51.863Z,5.28
2017-06-17T01:45:17.925Z,4.22
2017-06-17T01:47:43.986Z,4.53
2017-06-17T01:50:10.036Z,3.17
2017-06-17T01:52:36.841Z,3.47
2017-06-17T01:55:02.911Z,5.00
2017-06-17T01:57:28.979Z,3.10
2017-06-17T01:59:55.025Z,4.15
2017-06-17T02:02:21.077Z,2.60
2017-06-17T02:04:47.136Z,3.87
2017-06-17T02:07:13.178Z,3.92
2017-06-17T02:09:39.217Z,4.00
2017-06-17T02:12:05.257Z,4.53
2017-06-17T02:15:02.413Z,4.20
2017-06-17T02:17:28.458Z,4.25
2017-06-17T02:19:54.502Z,4.35
2017-06-17T02:22:20.539Z,4.20
2017-06-17T02:24:46.574Z,4.30
2017-06-17T02:27:12.618Z,4.75
2017-06-17T02:29:38.662Z,4.05
2017-06-17T02:32:04.702Z,4.12
2017-06-17T02:34:30.752Z,4.65
2017-06-17T02:37:12.491Z,4.18
2017-06-17T02:39:38.530Z,4.55
2017-06-17T02:42:04.566Z,4.30
2017-06-17T02:44:30.611Z,4.10
2017-06-17T02:46:56.662Z,4.20
2017-06-17T02:49:22.697Z,4.47
2017-06-17T02:51:48.743Z,4.22
2017-06-17T02:54:14.790Z,3.78
2017-06-17T02:56:40.846Z,3.80
2017-06-17T02:59:06.902Z,5.47
2017-06-17T03:01:32.947Z,5.22
2017-06-17T03:03:58.994Z,5.40
2017-06-17T03:06:25.039Z,5.05
2017-06-17T03:08:51.096Z,5.90
2017-06-17T03:11:17.171Z,4.90
2017-06-17T03:13:43.274Z,4.18
2017-06-17T03:16:09.319Z,4.93
2017-06-17T03:18:35.350Z,5.00
2017-06-17T03:21:01.414Z,4.60
2017-06-17T03:23:27.461Z,4.93
2017-06-17T03:25:53.508Z,4.20
2017-06-17T03:28:19.551Z,4.05
2017-06-17T03:30:45.591Z,3.72
2017-06-17T03:33:11.639Z,3.90
2017-06-17T03:35:38.434Z,3.62
2017-06-17T03:38:04.478Z,4.32
2017-06-17T03:40:30.518Z,3.47
2017-06-17T03:42:56.558Z,3.25
2017-06-17T03:45:22.602Z,4.37
2017-06-17T03:47:48.648Z,4.95
2017-06-17T03:50:14.682Z,4.80
2017-06-17T03:52:40.722Z,4.57
2017-06-17T03:55:06.763Z,4.40
2017-06-17T03:57:32.807Z,3.70
2017-06-17T03:59:58.870Z,4.80
2017-06-17T04:02:24.906Z,4.43
2017-06-17T04:04:50.966Z,2.60
2017-06-17T04:07:17.017Z,4.22
2017-06-17T04:10:14.785Z,4.37
2017-06-17T04:12:40.822Z,4.28
2017-06-17T04:15:06.871Z,4.18
2017-06-17T04:17:33.682Z,4.35
2017-06-17T04:19:59.726Z,3.90
2017-06-17T04:22:25.772Z,3.12
2017-06-17T04:24:51.814Z,4.47
2017-06-17T04:27:17.859Z,5.03
2017-06-17T04:29:43.924Z,4.70
2017-06-17T04:32:09.966Z,3.95
2017-06-17T04:34:36.006Z,4.25
2017-06-17T04:37:02.050Z,6.10
2017-06-17T04:39:28.094Z,4.05
2017-06-17T04:41:54.170Z,4.85
2017-06-17T04:44:20.222Z,4.10
2017-06-17T04:46:46.258Z,4.12
2017-06-17T04:49:12.334Z,4.78
2017-06-17T04:51:38.375Z,3.40
2017-06-17T04:54:04.410Z,3.92
2017-06-17T04:56:30.450Z,3.87
2017-06-17T04:58:56.490Z,4.22
2017-06-17T05:01:22.527Z,3.95
2017-06-17T05:03:48.570Z,5.97
2017-06-17T05:06:14.618Z,5.57
2017-06-17T05:08:40.666Z,4.40
2017-06-17T05:11:06.709Z,5.30
2017-06-17T05:13:32.799Z,4.95
2017-06-17T05:15:58.842Z,4.97
2017-06-17T05:18:24.884Z,5.40
2017-06-17T05:20:50.927Z,5.35
2017-06-17T05:23:17.713Z,4.45
2017-06-17T05:25:43.765Z,4.60
2017-06-17T05:28:09.809Z,5.12
2017-06-17T05:30:35.855Z,4.45
2017-06-17T05:33:02.643Z,4.80
2017-06-17T05:35:28.698Z,5.15
2017-06-17T05:37:54.746Z,5.03
2017-06-17T05:40:20.794Z,4.80
2017-06-17T05:42:46.850Z,3.92
2017-06-17T05:45:12.905Z,4.78
2017-06-17T05:47:38.989Z,3.70
2017-06-17T05:50:05.043Z,4.30
2017-06-17T05:52:31.097Z,4.55
2017-06-17T05:54:57.152Z,3.75
2017-06-17T05:57:23.198Z,4.50
2017-06-17T05:59:49.253Z,3.15
2017-06-17T06:02:15.310Z,4.43
2017-06-17T06:04:42.097Z,4.55
2017-06-17T06:07:08.152Z,3.60
2017-06-17T06:09:34.190Z,4.10
2017-06-17T06:12:00.250Z,3.83
2017-06-17T06:14:26.313Z,4.32
2017-06-17T06:16:52.362Z,4.25
2017-06-17T06:19:18.394Z,3.85
2017-06-17T06:21:44.447Z,2.55
2017-06-17T06:24:10.498Z,3.25
2017-06-17T06:26:36.541Z,4.28
2017-06-17T06:29:02.591Z,4.22
2017-06-17T06:31:28.667Z,3.17
2017-06-17T06:33:54.718Z,3.20
2017-06-17T06:36:20.774Z,4.12
2017-06-17T06:38:46.830Z,3.22
2017-06-17T06:41:12.875Z,3.35
2017-06-17T06:43:38.924Z,3.25
2017-06-17T06:46:04.962Z,2.85
2017-06-17T06:48:31.009Z,2.90
2017-06-17T06:50:57.058Z,3.45
2017-06-17T06:53:23.113Z,3.33
2017-06-17T06:55:49.153Z,3.80
2017-06-17T06:58:15.192Z,3.42
2017-06-17T07:00:41.253Z,4.00
2017-06-17T07:03:07.298Z,3.58
2017-06-17T07:05:33.338Z,3.72
2017-06-17T07:07:59.378Z,3.95
2017-06-17T07:10:25.458Z,3.53
2017-06-17T07:12:52.249Z,3.05
2017-06-17T07:15:18.310Z,3.75
2017-06-17T07:17:44.346Z,2.70
2017-06-17T07:20:10.382Z,3.40
2017-06-17T07:22:37.205Z,2.80
2017-06-17T07:25:03.249Z,2.87
2017-06-17T07:27:29.293Z,2.30
2017-06-17T07:29:55.338Z,3.80
2017-06-17T07:32:21.390Z,1.90
2017-06-17T07:34:47.442Z,2.30
2017-06-17T07:37:14.231Z,3.83
2017-06-17T07:39:40.263Z,3.00
2017-06-17T07:42:06.298Z,2.60
2017-06-17T07:44:32.342Z,2.50
2017-06-17T07:46:58.397Z,2.33
2017-06-17T07:49:24.442Z,2.50
2017-06-17T07:51:50.486Z,2.70
2017-06-17T07:54:16.533Z,2.83
2017-06-17T07:56:42.570Z,2.50
2017-06-17T07:59:08.610Z,2.78
2017-06-17T08:01:34.731Z,2.20
2017-06-17T08:04:00.773Z,2.40
2017-06-17T08:06:26.827Z,2.00
2017-06-17T08:08:52.878Z,2.90
2017-06-17T08:11:18.943Z,3.42
2017-06-17T08:13:44.986Z,2.12
2017-06-17T08:16:11.045Z,3.03
2017-06-17T08:18:37.090Z,2.60
2017-06-17T08:21:03.134Z,2.33
2017-06-17T08:23:29.182Z,2.30
2017-06-17T08:25:55.241Z,2.20
2017-06-17T08:28:21.282Z,1.98
2017-06-17T08:30:47.330Z,2.37
2017-06-17T08:33:13.377Z,2.25
2017-06-17T08:35:39.430Z,1.95
2017-06-17T08:38:05.474Z,2.30
2017-06-17T08:40:31.537Z,2.53
2017-06-17T08:42:57.610Z,2.12
2017-06-17T08:45:23.659Z,1.98
2017-06-17T08:47:49.706Z,2.05
2017-06-17T08:50:15.770Z,2.75
2017-06-17T08:52:41.825Z,1.92
2017-06-17T08:55:07.894Z,1.90
2017-06-17T08:57:33.947Z,2.95
2017-06-17T08:59:59.998Z,2.95
2017-06-17T09:02:26.033Z,3.42
2017-06-17T09:04:52.091Z,2.03
2017-06-17T09:07:18.153Z,2.20
2017-06-17T09:09:44.200Z,2.20
2017-06-17T09:12:10.250Z,1.77
2017-06-17T09:14:36.315Z,2.83
2017-06-17T09:17:02.367Z,1.90
2017-06-17T09:19:28.434Z,2.58
2017-06-17T09:21:54.476Z,2.25
2017-06-17T09:24:20.528Z,2.55
2017-06-17T09:26:46.578Z,2.05
2017-06-17T09:29:12.628Z,2.20
2017-06-17T09:31:38.674Z,1.90
2017-06-17T09:34:04.714Z,2.67
2017-06-17T09:36:30.781Z,1.60
2017-06-17T09:38:56.826Z,2.00
2017-06-17T09:41:22.869Z,2.05
2017-06-17T09:43:48.910Z,2.22
2017-06-17T09:46:14.954Z,2.08
2017-06-17T09:48:41.751Z,2.30
2017-06-17T09:51:07.795Z,2.22
2017-06-17T09:53:34.518Z,1.80
2017-06-17T09:56:00.562Z,1.85
2017-06-17T09:58:41.582Z,1.92
2017-06-17T10:01:07.624Z,2.10
2017-06-17T10:03:33.672Z,2.05
2017-06-17T10:05:59.716Z,2.20
2017-06-17T10:08:25.754Z,2.20
2017-06-17T10:10:51.794Z,2.05
2017-06-17T10:13:17.833Z,2.30
2017-06-17T10:15:43.893Z,2.40
2017-06-17T10:18:09.952Z,2.80
2017-06-17T10:20:36.078Z,2.47
2017-06-17T10:23:02.115Z,2.30
2017-06-17T10:25:28.184Z,2.30
2017-06-17T10:27:54.238Z,2.10
2017-06-17T10:30:20.283Z,2.40
2017-06-17T10:32:46.342Z,2.10
2017-06-17T10:35:27.387Z,2.60
2017-06-17T10:37:53.431Z,2.10
2017-06-17T10:40:20.214Z,1.92
2017-06-17T10:42:46.262Z,2.08
2017-06-17T10:45:12.305Z,2.30
2017-06-17T10:47:38.361Z,2.42
2017-06-17T10:50:05.155Z,2.85
2017-06-17T10:52:31.210Z,2.05
2017-06-17T10:54:57.263Z,2.70
2017-06-17T10:57:23.315Z,2.40
2017-06-17T10:59:49.365Z,2.50
2017-06-17T11:02:15.409Z,2.20
2017-06-17T11:04:41.442Z,2.00
2017-06-17T11:07:07.488Z,2.20
2017-06-17T11:09:33.542Z,2.67
2017-06-17T11:11:59.613Z,2.40
2017-06-17T11:14:25.646Z,1.87
2017-06-17T11:16:52.447Z,2.15
2017-06-17T11:19:18.494Z,2.20
2017-06-17T11:21:44.545Z,2.15
2017-06-17T11:24:10.618Z,2.53
2017-06-17T11:26:36.663Z,2.40
2017-06-17T11:29:02.702Z,2.28
2017-06-17T11:31:28.755Z,2.22
2017-06-17T11:33:54.808Z,2.00
2017-06-17T11:36:20.854Z,1.87
2017-06-17T11:38:46.890Z,2.33
2017-06-17T11:41:12.930Z,2.40
2017-06-17T11:43:38.995Z,2.17
2017-06-17T11:46:05.037Z,1.87
2017-06-17T11:48:31.100Z,2.03
2017-06-17T11:50:57.134Z,1.90
2017-06-17T11:53:23.210Z,1.95
2017-06-17T11:55:49.264Z,2.37
2017-06-17T11:58:15.318Z,1.80
2017-06-17T12:00:41.366Z,2.20
2017-06-17T12:03:07.417Z,2.35
2017-06-17T12:05:33.470Z,2.22
2017-06-17T12:07:59.521Z,1.95
2017-06-17T12:10:25.574Z,1.77
2017-06-17T12:12:52.369Z,1.87
2017-06-17T12:15:18.472Z,1.98
2017-06-17T12:17:44.518Z,1.70
2017-06-17T12:20:10.577Z,2.00
2017-06-17T12:22:36.626Z,2.37
2017-06-17T12:25:02.666Z,2.10
2017-06-17T12:27:28.710Z,2.37
2017-06-17T12:29:54.767Z,2.12
2017-06-17T12:32:20.823Z,2.30
2017-06-17T12:34:46.886Z,2.22
2017-06-17T12:37:12.931Z,1.80
2017-06-17T12:39:38.977Z,1.80
2017-06-17T12:42:05.053Z,2.10
2017-06-17T12:44:31.114Z,1.85
2017-06-17T12:46:57.168Z,2.15
2017-06-17T12:49:23.211Z,2.10
2017-06-17T12:51:49.258Z,1.90
2017-06-17T12:54:15.310Z,1.80
2017-06-17T12:56:41.353Z,1.55
2017-06-17T12:59:07.414Z,2.15
2017-06-17T13:01:33.467Z,1.90
2017-06-17T13:04:14.474Z,2.30
2017-06-17T13:06:40.518Z,2.20
2017-06-17T13:09:06.586Z,1.40
2017-06-17T13:11:32.639Z,2.03
2017-06-17T13:13:58.686Z,1.70
2017-06-17T13:16:24.721Z,1.90
2017-06-17T13:18:50.770Z,1.83
2017-06-17T13:21:16.846Z,1.83
2017-06-17T13:23:42.891Z,1.75
2017-06-17T13:26:08.939Z,1.97
2017-06-17T13:28:34.990Z,1.50
2017-06-17T13:31:01.034Z,2.00
2017-06-17T13:33:27.081Z,1.80
2017-06-17T13:35:53.134Z,1.40
2017-06-17T13:38:19.926Z,1.77
2017-06-17T13:40:45.975Z,1.85
2017-06-17T13:43:12.025Z,1.90
2017-06-17T13:45:38.074Z,1.57
2017-06-17T13:48:04.130Z,1.47
2017-06-17T13:50:30.175Z,1.87
2017-06-17T13:52:56.222Z,1.97
2017-06-17T13:55:22.276Z,1.43
2017-06-17T13:57:48.351Z,1.50
2017-06-17T14:00:14.399Z,1.62
2017-06-17T14:02:40.450Z,1.40
2017-06-17T14:05:06.505Z,1.80
2017-06-17T14:07:32.546Z,1.55
2017-06-17T14:09:58.607Z,1.90
2017-06-17T14:12:24.683Z,1.60
2017-06-17T14:14:50.762Z,1.77
2017-06-17T14:17:16.813Z,1.83
2017-06-17T14:19:42.879Z,1.70
2017-06-17T14:22:15.943Z,1.40
2017-06-17T14:24:41.995Z,1.37
2017-06-17T14:27:08.046Z,1.30
2017-06-17T14:29:34.099Z,1.83
2017-06-17T14:32:00.235Z,1.63
2017-06-17T14:34:26.282Z,1.73
2017-06-17T14:36:52.339Z,1.50
2017-06-17T14:39:18.386Z,1.40
2017-06-17T14:41:44.495Z,2.17
2017-06-17T14:44:10.542Z,1.80
2017-06-17T14:46:36.587Z,1.70
2017-06-17T14:49:02.639Z,1.67
2017-06-17T14:51:28.690Z,1.92
2017-06-17T14:53:54.747Z,1.85
2017-06-17T14:56:20.819Z,1.50
2017-06-17T14:58:46.910Z,1.87
2017-06-17T15:01:12.965Z,1.80
2017-06-17T15:03:39.024Z,1.60
2017-06-17T15:06:19.961Z,1.85
2017-06-17T15:08:46.012Z,1.97
2017-06-17T15:11:12.062Z,1.50
2017-06-17T15:13:38.119Z,1.50
2017-06-17T15:16:04.174Z,1.80
2017-06-17T15:18:30.245Z,1.85
2017-06-17T15:21:27.941Z,1.97
2017-06-17T15:23:54.001Z,1.70
2017-06-17T15:26:20.054Z,1.60
2017-06-17T15:28:46.126Z,1.70
2017-06-17T15:31:12.179Z,2.10
2017-06-17T15:33:38.229Z,1.90
2017-06-17T15:36:04.288Z,2.23
2017-06-17T15:38:30.341Z,1.90
2017-06-17T15:40:56.449Z,2.30
2017-06-17T15:43:22.521Z,2.70
2017-06-17T15:45:48.591Z,2.62
2017-06-17T15:48:14.648Z,2.55
2017-06-17T15:50:40.764Z,2.50
2017-06-17T15:53:06.814Z,2.90
2017-06-17T15:55:32.879Z,3.35
2017-06-17T15:57:58.935Z,3.05
2017-06-17T16:00:56.578Z,3.72
2017-06-17T16:03:22.626Z,3.65
2017-06-17T16:05:48.679Z,4.20
2017-06-17T16:08:14.878Z,3.65
2017-06-17T16:10:40.934Z,3.50
2017-06-17T16:13:06.990Z,3.47
2017-06-17T16:15:33.051Z,3.65
2017-06-17T16:17:59.862Z,3.92
2017-06-17T16:20:25.914Z,4.40
2017-06-17T16:22:52.006Z,4.00
2017-06-17T16:25:18.102Z,4.22
2017-06-17T16:27:44.154Z,4.00
2017-06-17T16:30:10.201Z,4.40
2017-06-17T16:32:36.250Z,4.53
2017-06-17T16:35:02.302Z,4.07
2017-06-17T16:37:28.354Z,3.67
2017-06-17T16:39:54.402Z,4.40
2017-06-17T16:42:20.454Z,3.90
2017-06-17T16:44:46.515Z,4.18
2017-06-17T16:47:12.567Z,4.37
2017-06-17T16:49:38.610Z,4.43
2017-06-17T16:52:04.662Z,2.95
2017-06-17T16:54:30.738Z,4.18
2017-06-17T16:56:56.790Z,3.45
2017-06-17T16:59:22.850Z,3.55
2017-06-17T17:01:48.919Z,4.03
2017-06-17T17:04:14.961Z,4.32
2017-06-17T17:06:41.027Z,4.03
2017-06-17T17:09:07.086Z,4.70
2017-06-17T17:11:33.142Z,4.75
2017-06-17T17:13:59.178Z,5.60
2017-06-17T17:16:25.981Z,4.87
2017-06-17T17:18:52.069Z,4.95
2017-06-17T17:21:18.121Z,5.68
2017-06-17T17:23:44.178Z,6.47
2017-06-17T17:26:10.296Z,6.00
2017-06-17T17:28:36.374Z,5.10
2017-06-17T17:31:02.425Z,5.50
2017-06-17T17:33:28.482Z,7.15
2017-06-17T17:35:54.530Z,4.95
2017-06-17T17:38:20.579Z,5.93
2017-06-17T17:40:47.365Z,5.78
2017-06-17T17:43:13.410Z,6.60
2017-06-17T17:45:39.455Z,5.28
2017-06-17T17:48:05.506Z,6.30
2017-06-17T17:50:31.575Z,5.55
2017-06-17T17:52:57.626Z,6.62
2017-06-17T17:55:23.670Z,6.47
2017-06-17T17:57:49.717Z,7.43
2017-06-17T18:00:15.771Z,6.37
2017-06-17T18:02:41.818Z,5.50
2017-06-17T18:05:07.865Z,6.25
2017-06-17T18:07:34.649Z,5.82
2017-06-17T18:10:00.701Z,5.25
2017-06-17T18:12:26.759Z,5.57
2017-06-17T18:14:52.819Z,5.95
2017-06-17T18:17:18.870Z,5.97
2017-06-17T18:19:44.910Z,6.43
2017-06-17T18:22:10.956Z,5.95
2017-06-17T18:24:37.002Z,6.12
2017-06-17T18:27:03.045Z,6.12
2017-06-17T18:29:29.083Z,6.32
2017-06-17T18:31:55.119Z,6.53
2017-06-17T18:34:21.183Z,6.97
2017-06-17T18:36:47.251Z,5.85
2017-06-17T18:39:13.303Z,6.50
2017-06-17T18:41:39.354Z,6.45
2017-06-17T18:44:05.407Z,4.60
2017-06-17T18:46:31.461Z,6.05
2017-06-17T18:48:57.502Z,5.25
2017-06-17T18:51:23.550Z,11.23
2017-06-17T18:53:49.597Z,7.47
2017-06-17T18:56:15.658Z,7.37
2017-06-17T18:58:41.718Z,6.55
2017-06-17T19:01:07.836Z,5.75
2017-06-17T19:03:33.891Z,6.85
2017-06-17T19:05:59.947Z,5.97
2017-06-17T19:08:26.734Z,6.60
2017-06-17T19:10:52.786Z,6.87
2017-06-17T19:13:18.817Z,5.72
2017-06-17T19:15:44.866Z,5.10
2017-06-17T19:18:10.909Z,7.00
2017-06-17T19:20:36.970Z,5.40
2017-06-17T19:23:03.023Z,4.95
2017-06-17T19:25:29.078Z,6.45
2017-06-17T19:27:55.121Z,6.75
2017-06-17T19:30:21.163Z,6.55
2017-06-17T19:32:47.210Z,6.93
2017-06-17T19:35:13.255Z,7.75
2017-06-17T19:37:39.306Z,7.03
2017-06-17T19:40:05.345Z,7.35
2017-06-17T19:42:31.393Z,7.28
2017-06-17T19:44:57.430Z,8.30
2017-06-17T19:47:38.432Z,8.60
2017-06-17T19:50:05.218Z,7.07
2017-06-17T19:52:31.261Z,7.20
2017-06-17T19:54:57.298Z,5.50
2017-06-17T19:57:23.334Z,7.47
2017-06-17T19:59:49.385Z,8.38
2017-06-17T20:02:15.430Z,7.45
2017-06-17T20:04:41.474Z,9.05
2017-06-17T20:07:07.532Z,8.25
2017-06-17T20:09:33.574Z,9.27
2017-06-17T20:11:59.626Z,8.90
2017-06-17T20:14:25.670Z,8.43
2017-06-17T20:16:51.712Z,5.80
2017-06-17T20:19:17.762Z,8.00
2017-06-17T20:21:49.808Z,5.72
2017-06-17T20:24:21.850Z,7.72
2017-06-17T20:26:47.896Z,7.68
2017-06-17T20:29:13.952Z,7.90
2017-06-17T20:31:39.994Z,5.15
2017-06-17T20:34:06.038Z,8.80
2017-06-17T20:36:32.106Z,8.77
2017-06-17T20:38:58.182Z,8.20
2017-06-17T20:41:24.957Z,8.82
2017-06-17T20:43:51.001Z,7.47
2017-06-17T20:46:17.058Z,7.93
2017-06-17T20:48:43.106Z,7.75
2017-06-17T20:51:09.885Z,4.90
2017-06-17T20:53:50.882Z,8.13
2017-06-17T20:56:16.922Z,10.05
2017-06-17T20:58:42.995Z,10.20
2017-06-17T21:01:09.034Z,7.90
2017-06-17T21:03:35.074Z,7.95
2017-06-17T21:06:01.122Z,8.82
2017-06-17T21:08:27.170Z,8.13
2017-06-17T21:10:53.215Z,5.60
2017-06-17T21:13:19.275Z,7.32
2017-06-17T21:15:45.307Z,8.50
2017-06-17T21:18:11.349Z,9.23
2017-06-17T21:20:37.403Z,10.95
2017-06-17T21:23:03.454Z,10.73
2017-06-17T21:25:29.490Z,10.35
2017-06-17T21:27:55.531Z,11.73
2017-06-17T21:30:21.586Z,13.57
2017-06-17T21:32:47.627Z,10.25
2017-06-17T21:35:28.621Z,9.40
2017-06-17T21:37:54.658Z,12.18
2017-06-17T21:40:20.706Z,19.50
2017-06-17T21:42:46.745Z,12.95
2017-06-17T21:45:12.786Z,11.85
2017-06-17T21:47:38.831Z,11.60
2017-06-17T21:50:04.878Z,9.60
2017-06-17T21:52:30.917Z,10.90
2017-06-17T21:54:56.949Z,10.20
2017-06-17T21:57:22.991Z,11.57
2017-06-17T21:59:49.034Z,10.55
2017-06-17T22:02:15.078Z,10.48
2017-06-17T22:04:41.126Z,12.93
2017-06-17T22:07:07.911Z,12.30
2017-06-17T22:09:33.955Z,13.90
2017-06-17T22:11:59.991Z,11.55
2017-06-17T22:14:26.037Z,12.85
2017-06-17T22:16:52.828Z,13.00
2017-06-17T22:19:18.882Z,13.70
2017-06-17T22:21:44.922Z,15.45
2017-06-17T22:24:10.961Z,11.07
2017-06-17T22:26:37.738Z,15.60
2017-06-17T22:29:03.803Z,14.02
2017-06-17T22:31:29.859Z,15.20
2017-06-17T22:33:55.906Z,14.87
2017-06-17T22:36:21.943Z,12.93
2017-06-17T22:38:47.990Z,16.37
2017-06-17T22:41:14.043Z,13.50
2017-06-17T22:43:40.085Z,16.25
2017-06-17T22:46:06.134Z,12.70
2017-06-17T22:48:32.186Z,14.95
2017-06-17T22:50:58.233Z,15.02
2017-06-17T22:53:24.286Z,13.77
2017-06-17T22:55:50.361Z,13.80
2017-06-17T22:58:16.414Z,16.23
2017-06-17T23:00:42.464Z,14.45
2017-06-17T23:03:08.526Z,14.48
2017-06-17T23:05:34.571Z,14.73
2017-06-17T23:08:00.613Z,14.57
2017-06-17T23:10:26.673Z,14.70
2017-06-17T23:12:52.753Z,14.80
2017-06-17T23:15:18.793Z,15.52
2017-06-17T23:17:44.846Z,16.10
2017-06-17T23:20:10.913Z,12.95
2017-06-17T23:22:36.966Z,8.07
2017-06-17T23:25:03.030Z,9.32
2017-06-17T23:27:29.070Z,13.13
2017-06-17T23:29:55.117Z,14.07
2017-06-17T23:32:21.158Z,14.93
2017-06-17T23:34:47.206Z,13.20
2017-06-17T23:37:13.277Z,13.38
2017-06-17T23:39:39.327Z,14.02
2017-06-17T23:42:36.201Z,14.25
2017-06-17T23:45:02.257Z,12.70
2017-06-17T23:47:28.302Z,14.35
2017-06-17T23:49:54.352Z,13.00
2017-06-17T23:52:20.395Z,14.20
2017-06-17T23:54:46.435Z,14.13
2017-06-17T23:57:12.475Z,13.32
2017-06-17T23:59:38.514Z,14.20
